createdAt,value
2023-04-08T00:01:21.621Z,93327.44
2023-04-08T00:06:28.383Z,93329.59
2023-04-08T00:11:35.392Z,93329.69
2023-04-08T00:16:42.299Z,93324.42
2023-04-08T00:21:49.229Z,93314.41
2023-04-08T00:26:57.344Z,93322.63
2023-04-08T00:32:04.616Z,93320.27
2023-04-08T00:37:12.286Z,93322.47
2023-04-08T00:42:19.673Z,93316.94
2023-04-08T00:47:27.224Z,93317.37
2023-04-08T00:52:38.884Z,93313.24
2023-04-08T00:57:42.713Z,93323.73
2023-04-08T01:02:54.314Z,93312.84
2023-04-08T01:08:04.842Z,93311.99
2023-04-08T01:13:14.597Z,93311.59
2023-04-08T01:18:23.270Z,93308.02
2023-04-08T01:24:04.840Z,93304.09
2023-04-08T01:29:13.692Z,93295.91
2023-04-08T01:34:22.117Z,93298.27
2023-04-08T01:39:30.875Z,93292.19
2023-04-08T01:44:38.427Z,93295.75
2023-04-08T01:49:46.576Z,93293.25
2023-04-08T01:54:54.401Z,93294.72
2023-04-08T02:00:08.010Z,93287.92
2023-04-08T02:05:15.760Z,93290.27
2023-04-08T02:10:22.882Z,93285.87
2023-04-08T02:15:33.827Z,93294.32
2023-04-08T02:20:46.249Z,93287.23
2023-04-08T02:25:55.082Z,93282.09
2023-04-08T02:31:03.108Z,93292.67
2023-04-08T02:36:11.180Z,93291.81
2023-04-08T02:41:18.596Z,93291.71
2023-04-08T02:46:25.392Z,93297.64
2023-04-08T02:51:32.582Z,93296.51
2023-04-08T02:56:39.319Z,93295.98
2023-04-08T03:01:46.348Z,93297.30
2023-04-08T03:06:53.075Z,93302.77
2023-04-08T03:11:59.937Z,93301.20
2023-04-08T03:17:07.465Z,93308.61
2023-04-08T03:22:15.288Z,93309.27
2023-04-08T03:27:22.050Z,93303.39
2023-04-08T03:32:28.803Z,93297.98
2023-04-08T03:37:35.607Z,93295.12
2023-04-08T03:42:42.345Z,93297.22
2023-04-08T03:47:49.126Z,93308.75
2023-04-08T03:52:56.049Z,93300.34
2023-04-08T03:58:02.877Z,93312.66
2023-04-08T04:03:11.195Z,93306.77
2023-04-08T04:08:18.109Z,93333.47
2023-04-08T04:13:24.894Z,93313.48
2023-04-08T04:18:31.691Z,93315.39
2023-04-08T04:23:38.458Z,93328.98
2023-04-08T04:28:45.211Z,93325.09
2023-04-08T04:33:52.197Z,93338.09
2023-04-08T04:38:58.937Z,93357.92
2023-04-08T04:44:05.706Z,93337.94
2023-04-08T04:49:12.474Z,93344.66
2023-04-08T04:54:20.846Z,93356.06
2023-04-08T04:59:27.930Z,93354.64
2023-04-08T05:04:34.721Z,93363.13
2023-04-08T05:09:41.560Z,93363.64
2023-04-08T05:14:48.493Z,93376.15
2023-04-08T05:19:55.258Z,93378.37
2023-04-08T05:25:03.618Z,93381.69
2023-04-08T05:30:11.501Z,93204.84
2023-04-08T05:35:18.388Z,93386.52
2023-04-08T05:40:25.278Z,93403.23
2023-04-08T05:45:32.459Z,93400.64
2023-04-08T05:50:39.336Z,93410.89
2023-04-08T05:55:47.098Z,93417.36
2023-04-08T06:00:56.004Z,93418.36
2023-04-08T06:06:02.770Z,93417.50
2023-04-08T06:11:09.485Z,93424.80
2023-04-08T06:16:20.971Z,93421.44
2023-04-08T06:21:26.948Z,93428.17
2023-04-08T06:26:33.703Z,93428.73
2023-04-08T06:31:40.731Z,93433.29
2023-04-08T06:36:47.475Z,93436.59
2023-04-08T06:41:55.195Z,93440.52
2023-04-08T06:47:02.203Z,93440.81
2023-04-08T06:52:09.436Z,93446.74
2023-04-08T06:57:17.796Z,93449.13
2023-04-08T07:02:24.866Z,93452.81
2023-04-08T07:07:32.823Z,93454.13
2023-04-08T07:12:40.035Z,93457.41
2023-04-08T07:17:47.971Z,93473.39
2023-04-08T07:22:55.000Z,93470.69
2023-04-08T07:28:02.286Z,93467.77
2023-04-08T07:33:09.158Z,93473.28
2023-04-08T07:38:16.957Z,93496.06
2023-04-08T07:43:23.803Z,93502.33
2023-04-08T07:48:30.914Z,93492.98
2023-04-08T07:53:37.824Z,93493.47
2023-04-08T07:58:44.910Z,93504.55
2023-04-08T08:03:53.759Z,93506.67
2023-04-08T08:09:01.642Z,93506.25
2023-04-08T08:14:08.577Z,93510.02
2023-04-08T08:19:15.419Z,93514.70
2023-04-08T08:24:22.304Z,93521.05
2023-04-08T08:29:29.093Z,93525.41
2023-04-08T08:34:36.806Z,93533.09
2023-04-08T08:39:43.734Z,93540.27
2023-04-08T08:44:51.170Z,93540.86
2023-04-08T08:49:57.975Z,93538.52
2023-04-08T08:55:17.003Z,93534.62
2023-04-08T09:00:16.432Z,93549.05
2023-04-08T09:05:24.582Z,93551.54
2023-04-08T09:10:31.714Z,93549.77
2023-04-08T09:15:40.818Z,93555.07
2023-04-08T09:20:57.244Z,93567.41
2023-04-08T09:26:13.587Z,93563.67
2023-04-08T09:31:29.046Z,93570.11
2023-04-08T09:36:35.811Z,93576.83
2023-04-08T09:41:44.957Z,93574.70
2023-04-08T09:47:07.071Z,93592.72
2023-04-08T09:52:33.654Z,93572.52
2023-04-08T09:58:02.624Z,93569.89
2023-04-08T10:03:30.543Z,93574.53
2023-04-08T10:08:38.255Z,93575.85
2023-04-08T10:13:45.649Z,93576.61
2023-04-08T10:18:54.580Z,93578.95
2023-04-08T10:24:03.812Z,93582.83
2023-04-08T10:29:30.114Z,93584.70
2023-04-08T10:34:36.876Z,93575.53
2023-04-08T10:39:48.110Z,93574.63
2023-04-08T10:44:54.843Z,93575.41
2023-04-08T10:50:02.756Z,93578.75
2023-04-08T10:55:10.811Z,93574.72
2023-04-08T11:00:24.170Z,93578.25
2023-04-08T11:05:30.640Z,93574.91
2023-04-08T11:10:41.502Z,93575.77
2023-04-08T11:15:48.510Z,93572.69
2023-04-08T11:20:58.900Z,93574.53
2023-04-08T11:26:08.359Z,93573.88
2023-04-08T11:31:15.886Z,93571.87
2023-04-08T11:36:22.823Z,93573.91
2023-04-08T11:41:39.664Z,93581.03
2023-04-08T11:46:57.636Z,93574.53
2023-04-08T11:52:04.489Z,93580.76
2023-04-08T11:57:11.881Z,93578.78
2023-04-08T12:02:18.835Z,93583.00
2023-04-08T12:07:26.919Z,93576.00
2023-04-08T12:12:33.985Z,93578.31
2023-04-08T12:17:41.179Z,93582.06
2023-04-08T12:22:49.000Z,93576.89
2023-04-08T12:27:55.840Z,93576.95
2023-04-08T12:33:03.126Z,93573.77
2023-04-08T12:38:10.275Z,93584.50
2023-04-08T12:43:17.911Z,93587.84
2023-04-08T12:48:24.931Z,93585.95
2023-04-08T12:53:31.760Z,93582.71
2023-04-08T12:58:38.866Z,93582.12
2023-04-08T13:03:47.366Z,93576.81
2023-04-08T13:08:54.758Z,93593.75
2023-04-08T13:14:02.884Z,93585.88
2023-04-08T13:19:10.295Z,93586.50
2023-04-08T13:24:17.258Z,93582.22
2023-04-08T13:29:24.574Z,93581.50
2023-04-08T13:34:32.037Z,93579.71
2023-04-08T13:39:39.438Z,93578.69
2023-04-08T13:44:46.553Z,93581.97
2023-04-08T13:49:54.259Z,93585.51
2023-04-08T13:55:01.216Z,93587.16
2023-04-08T14:00:10.937Z,93594.34
2023-04-08T14:05:19.375Z,93612.19
2023-04-08T14:10:27.423Z,93594.20
2023-04-08T14:15:34.412Z,93600.30
2023-04-08T14:20:42.068Z,93604.81
2023-04-08T14:25:49.385Z,93608.78
2023-04-08T14:30:56.437Z,93615.11
2023-04-08T14:36:03.919Z,93613.22
2023-04-08T14:41:10.918Z,93620.80
2023-04-08T14:46:18.464Z,93621.05
2023-04-08T14:51:27.416Z,93620.32
2023-04-08T14:56:34.290Z,93622.57
2023-04-08T15:01:41.875Z,93621.33
2023-04-08T15:06:49.299Z,93624.70
2023-04-08T15:11:56.878Z,93625.99
2023-04-08T15:17:03.715Z,93627.36
2023-04-08T15:22:10.684Z,93631.98
2023-04-08T15:27:17.766Z,93637.75
2023-04-08T15:32:24.757Z,93646.22
2023-04-08T15:37:32.794Z,93643.51
2023-04-08T15:42:40.008Z,93643.80
2023-04-08T15:47:46.739Z,93653.61
2023-04-08T15:52:54.147Z,93657.27
2023-04-08T15:58:01.194Z,93656.23
2023-04-08T16:03:09.705Z,93660.21
2023-04-08T16:08:16.847Z,93663.36
2023-04-08T16:13:23.801Z,93674.57
2023-04-08T16:18:31.051Z,93680.50
2023-04-08T16:23:38.562Z,93685.41
2023-04-08T16:28:45.441Z,93687.45
2023-04-08T16:33:52.809Z,93687.19
2023-04-08T16:38:59.888Z,93690.79
2023-04-08T16:44:07.213Z,93697.83
2023-04-08T16:49:15.626Z,93700.59
2023-04-08T16:54:23.064Z,93704.59
2023-04-08T16:59:30.588Z,93705.66
2023-04-08T17:04:37.706Z,93712.89
2023-04-08T17:09:44.714Z,93712.12
2023-04-08T17:14:51.552Z,93720.87
2023-04-08T17:19:58.657Z,93726.58
2023-04-08T17:25:06.379Z,93734.45
2023-04-08T17:30:13.945Z,93741.70
2023-04-08T17:35:20.757Z,93743.54
2023-04-08T17:40:27.758Z,93749.28
2023-04-08T17:45:34.571Z,93755.36
2023-04-08T17:50:41.327Z,93765.94
2023-04-08T17:55:49.750Z,93768.27
2023-04-08T18:00:56.953Z,93772.50
2023-04-08T18:06:03.805Z,93780.95
2023-04-08T18:11:11.378Z,93781.69
2023-04-08T18:16:20.773Z,93782.04
2023-04-08T18:21:27.808Z,93792.58
2023-04-08T18:26:34.853Z,93800.69
2023-04-08T18:31:42.158Z,93806.71
2023-04-08T18:36:49.012Z,93822.74
2023-04-08T18:41:56.497Z,93825.89
2023-04-08T18:47:03.471Z,93832.13
2023-04-08T18:52:11.488Z,93832.44
2023-04-08T18:57:18.376Z,93844.81
2023-04-08T19:02:25.702Z,93857.00
2023-04-08T19:07:33.156Z,93856.39
2023-04-08T19:12:39.988Z,93854.06
2023-04-08T19:17:47.703Z,93871.75
2023-04-08T19:22:56.253Z,93869.45
2023-04-08T19:28:03.414Z,93872.33
2023-04-08T19:33:11.068Z,93871.66
2023-04-08T19:38:18.183Z,93890.98
2023-04-08T19:43:25.136Z,93893.34
2023-04-08T19:48:33.546Z,93889.67
2023-04-08T19:53:40.707Z,93887.34
2023-04-08T19:58:48.692Z,93896.72
2023-04-08T20:03:55.682Z,93892.48
2023-04-08T20:09:04.728Z,93904.44
2023-04-08T20:14:11.793Z,93897.44
2023-04-08T20:19:18.511Z,93901.91
2023-04-08T20:24:25.575Z,93904.28
2023-04-08T20:29:33.576Z,93905.89
2023-04-08T20:34:40.349Z,93906.66
2023-04-08T20:39:47.651Z,93910.27
2023-04-08T20:44:54.595Z,93912.78
2023-04-08T20:50:05.904Z,93909.39
2023-04-08T20:55:13.298Z,93712.59
2023-04-08T21:00:20.230Z,93910.83
2023-04-08T21:05:27.738Z,93914.94
2023-04-08T21:10:35.043Z,93912.45
2023-04-08T21:15:41.980Z,93909.42
2023-04-08T21:20:50.972Z,93913.37
2023-04-08T21:25:57.870Z,93921.24
2023-04-08T21:31:12.860Z,93920.42
2023-04-08T21:36:20.852Z,93917.66
2023-04-08T21:41:30.324Z,93917.23
2023-04-08T21:46:36.726Z,93917.18
2023-04-08T21:51:43.632Z,93919.92
2023-04-08T21:56:50.505Z,93922.03
2023-04-08T22:01:57.590Z,93918.25
2023-04-08T22:07:04.368Z,93925.30
2023-04-08T22:12:12.823Z,93748.41
2023-04-08T22:17:19.665Z,93926.33
2023-04-08T22:22:26.527Z,93921.97
2023-04-08T22:27:34.449Z,93916.44
2023-04-08T22:32:41.628Z,93918.30
2023-04-08T22:37:48.488Z,93922.82
2023-04-08T22:42:56.619Z,93922.47
2023-04-08T22:48:03.706Z,93922.26
2023-04-08T22:53:11.317Z,93919.48
2023-04-08T22:58:18.265Z,93916.30
2023-04-08T23:03:25.321Z,93914.69
2023-04-08T23:08:32.022Z,93914.64
2023-04-08T23:13:40.838Z,93917.88
2023-04-08T23:18:47.768Z,93915.18
2023-04-08T23:23:56.185Z,93924.88
2023-04-08T23:29:03.679Z,93925.13
2023-04-08T23:34:10.805Z,93921.77
2023-04-08T23:39:17.550Z,93915.94
2023-04-08T23:44:24.386Z,93918.03
2023-04-08T23:49:31.262Z,93916.20
2023-04-08T23:54:38.387Z,93914.16
2023-04-08T23:59:45.615Z,93909.66
